Terminal Aerodrome Forecast
Issued by NWS

Home | Current Version | Previous Version | Text Only | Print | Product List | Glossary On
Versions: 1 2 3 4 5 6 7 8 9 10 11 12 13 14 15
000
FTUS43 KBIS 200500
TAFMOT
TAF
KMOT 200540Z 2006/2106 15004KT P6SM FEW300
     FM201000 18008KT P6SM FEW250
     FM201700 20015KT P6SM FEW120 SCT180
     FM202000 25018G26KT P6SM VCSH SCT050 BKN090
     FM210000 28019G27KT P6SM SCT070
     FM210300 28013KT P6SM SKC=

USA.gov is the U.S. government's official web portal to all federal, state and local government web resources and services.